createdAt,value
2022-12-05T00:01:31.277Z,26.40
2022-12-05T00:04:00.588Z,32.22
2022-12-05T00:06:29.584Z,28.33
2022-12-05T00:08:57.467Z,26.80
2022-12-05T00:11:30.249Z,26.13
2022-12-05T00:13:59.116Z,26.30
2022-12-05T00:16:28.522Z,26.92
2022-12-05T00:18:55.715Z,28.17
2022-12-05T00:21:25.954Z,29.05
2022-12-05T00:23:54.274Z,27.27
2022-12-05T00:26:21.649Z,26.60
2022-12-05T00:28:49.630Z,26.20
2022-12-05T00:31:19.670Z,25.92
2022-12-05T00:33:46.892Z,24.55
2022-12-05T00:36:23.438Z,26.42
2022-12-05T00:38:50.846Z,24.27
2022-12-05T00:41:20.616Z,25.77
2022-12-05T00:43:47.574Z,26.30
2022-12-05T00:46:17.281Z,24.35
2022-12-05T00:48:44.826Z,25.15
2022-12-05T00:51:21.275Z,24.73
2022-12-05T00:53:48.529Z,23.58
2022-12-05T00:56:18.782Z,24.17
2022-12-05T00:58:46.518Z,24.40
2022-12-05T01:01:19.497Z,24.42
2022-12-05T01:03:47.142Z,22.92
2022-12-05T01:06:15.794Z,23.98
2022-12-05T01:08:43.148Z,24.30
2022-12-05T01:11:11.732Z,25.13
2022-12-05T01:13:38.587Z,23.35
2022-12-05T01:16:06.083Z,23.27
2022-12-05T01:18:33.269Z,21.42
2022-12-05T01:21:00.095Z,22.33
2022-12-05T01:23:26.842Z,23.55
2022-12-05T01:25:53.990Z,22.52
2022-12-05T01:28:21.078Z,21.85
2022-12-05T01:30:49.458Z,23.00
2022-12-05T01:33:17.540Z,22.35
2022-12-05T01:35:45.063Z,22.67
2022-12-05T01:38:13.386Z,23.23
2022-12-05T01:40:40.784Z,22.65
2022-12-05T01:43:18.025Z,21.67
2022-12-05T01:45:46.766Z,22.42
2022-12-05T01:48:31.649Z,22.73
2022-12-05T01:51:00.097Z,23.92
2022-12-05T01:53:28.306Z,25.17
2022-12-05T01:55:56.447Z,24.13
2022-12-05T01:58:28.330Z,23.50
2022-12-05T02:00:55.092Z,24.13
2022-12-05T02:03:22.316Z,24.48
2022-12-05T02:05:52.575Z,22.52
2022-12-05T02:08:19.980Z,23.58
2022-12-05T02:10:55.544Z,22.33
2022-12-05T02:13:46.448Z,24.60
2022-12-05T02:16:32.228Z,22.38
2022-12-05T02:19:37.667Z,24.67
2022-12-05T02:22:41.955Z,23.42
2022-12-05T02:25:32.817Z,25.23
2022-12-05T02:28:23.705Z,25.83
2022-12-05T02:30:58.711Z,25.15
2022-12-05T02:33:37.378Z,24.15
2022-12-05T02:36:17.269Z,26.52
2022-12-05T02:39:06.776Z,30.65
2022-12-05T02:41:41.193Z,27.83
2022-12-05T02:44:15.062Z,28.77
2022-12-05T02:46:44.693Z,31.83
2022-12-05T02:49:15.770Z,28.08
2022-12-05T02:51:47.001Z,30.35
2022-12-05T02:54:24.525Z,29.92
2022-12-05T02:56:53.057Z,27.98
2022-12-05T02:59:23.301Z,27.88
2022-12-05T03:01:51.001Z,27.70
2022-12-05T03:04:21.027Z,28.85
2022-12-05T03:07:10.200Z,29.48
2022-12-05T03:09:39.734Z,28.75
2022-12-05T03:12:17.690Z,27.52
2022-12-05T03:14:55.383Z,30.95
2022-12-05T03:17:26.042Z,32.40
2022-12-05T03:20:29.334Z,29.73
2022-12-05T03:23:43.458Z,28.90
2022-12-05T03:26:34.332Z,27.50
2022-12-05T03:29:40.946Z,27.55
2022-12-05T03:32:23.678Z,27.42
2022-12-05T03:35:03.147Z,25.85
2022-12-05T03:37:41.994Z,25.23
2022-12-05T03:40:38.787Z,27.38
2022-12-05T03:43:24.178Z,24.75
2022-12-05T03:45:56.921Z,24.73
2022-12-05T03:48:31.440Z,25.92
2022-12-05T03:51:00.418Z,24.33
2022-12-05T03:53:32.254Z,26.38
2022-12-05T03:59:21.441Z,24.20
2022-12-05T04:01:50.498Z,24.85
2022-12-05T04:04:40.925Z,24.05
2022-12-05T04:07:10.111Z,27.55
2022-12-05T04:09:49.538Z,29.25
2022-12-05T04:12:23.615Z,22.90
2022-12-05T04:14:55.006Z,23.33
2022-12-05T04:17:32.611Z,26.42
2022-12-05T04:20:20.509Z,25.63
2022-12-05T04:22:47.641Z,26.30
2022-12-05T04:25:35.589Z,24.00
2022-12-05T04:28:30.148Z,24.85
2022-12-05T04:31:03.723Z,24.30
2022-12-05T04:33:50.453Z,24.80
2022-12-05T04:36:26.134Z,23.42
2022-12-05T04:39:16.085Z,29.80
2022-12-05T04:41:50.327Z,26.55
2022-12-05T04:48:03.214Z,23.30
2022-12-05T04:50:33.494Z,26.42
2022-12-05T04:53:03.072Z,23.00
2022-12-05T04:55:32.495Z,24.20
2022-12-05T04:58:07.870Z,25.40
2022-12-05T05:00:44.018Z,24.38
2022-12-05T05:03:22.007Z,23.30
2022-12-05T05:05:52.475Z,23.08
2022-12-05T05:12:13.188Z,21.58
2022-12-05T05:14:42.617Z,22.73
2022-12-05T05:17:40.393Z,22.85
2022-12-05T05:20:27.040Z,22.23
2022-12-05T05:22:55.653Z,21.10
2022-12-05T05:37:05.461Z,19.85
2022-12-05T05:43:13.492Z,19.70
2022-12-05T05:45:40.221Z,21.02
2022-12-05T05:48:06.973Z,21.13
2022-12-05T05:50:33.748Z,21.70
2022-12-05T05:53:00.489Z,21.92
2022-12-05T05:55:27.310Z,21.50
2022-12-05T05:57:54.052Z,19.75
2022-12-05T06:00:25.315Z,19.83
2022-12-05T06:03:27.780Z,21.17
2022-12-05T06:05:59.662Z,21.25
2022-12-05T06:10:55.820Z,19.02
2022-12-05T06:13:22.608Z,21.15
2022-12-05T06:15:49.557Z,18.65
2022-12-05T06:18:16.289Z,19.10
2022-12-05T06:20:51.036Z,20.65
2022-12-05T06:23:17.758Z,19.85
2022-12-05T06:25:52.492Z,20.80
2022-12-05T06:28:20.415Z,19.75
2022-12-05T06:30:47.320Z,20.38
2022-12-05T06:33:14.680Z,20.40
2022-12-05T06:35:41.742Z,19.38
2022-12-05T06:38:08.825Z,21.10
2022-12-05T06:40:39.285Z,20.10
2022-12-05T06:43:06.068Z,20.30
2022-12-05T06:45:32.860Z,21.38
2022-12-05T06:47:59.663Z,21.40
2022-12-05T06:50:26.569Z,36.35
2022-12-05T06:52:53.311Z,23.50
2022-12-05T06:55:20.050Z,24.58
2022-12-05T06:57:46.798Z,23.25
2022-12-05T07:00:32.689Z,20.65
2022-12-05T07:02:59.538Z,20.85
2022-12-05T07:05:26.335Z,21.08
2022-12-05T07:07:53.307Z,21.08
2022-12-05T07:10:20.214Z,21.45
2022-12-05T07:12:47.138Z,24.60
2022-12-05T07:15:13.976Z,22.73
2022-12-05T07:17:40.845Z,21.50
2022-12-05T07:20:10.418Z,22.70
2022-12-05T07:22:37.499Z,21.92
2022-12-05T07:25:05.048Z,22.17
2022-12-05T07:27:31.866Z,20.80
2022-12-05T07:29:58.880Z,21.80
2022-12-05T07:32:26.035Z,23.15
2022-12-05T07:34:55.505Z,24.02
2022-12-05T07:37:22.801Z,21.80
2022-12-05T07:39:50.807Z,21.10
2022-12-05T07:42:17.537Z,21.17
2022-12-05T07:44:44.293Z,22.35
2022-12-05T07:47:11.091Z,22.98
2022-12-05T07:49:37.927Z,21.60
2022-12-05T07:52:04.782Z,21.38
2022-12-05T07:58:22.681Z,20.52
2022-12-05T08:04:30.204Z,23.77
2022-12-05T08:06:56.936Z,23.55
2022-12-05T08:09:23.766Z,24.65
2022-12-05T08:11:52.765Z,26.10
2022-12-05T08:14:20.424Z,25.17
2022-12-05T08:20:38.780Z,25.13
2022-12-05T08:31:10.048Z,26.70
2022-12-05T08:41:29.002Z,27.77
2022-12-05T08:47:47.775Z,31.67
2022-12-05T08:54:05.482Z,29.63
2022-12-05T08:57:25.031Z,30.30
2022-12-05T09:03:47.264Z,30.48
2022-12-05T09:10:17.043Z,33.58
2022-12-05T09:16:41.217Z,25.23
2022-12-05T09:22:57.773Z,27.85
2022-12-05T09:29:37.486Z,26.67
2022-12-05T09:32:04.488Z,25.48
2022-12-05T09:34:31.376Z,26.15
2022-12-05T09:37:16.375Z,27.70
2022-12-05T09:39:45.442Z,30.55
2022-12-05T09:42:53.477Z,29.33
2022-12-05T09:45:26.327Z,30.33
2022-12-05T09:50:52.985Z,27.88
2022-12-05T09:54:15.078Z,27.95
2022-12-05T10:00:30.602Z,29.75
2022-12-05T10:03:00.165Z,39.90
2022-12-05T10:05:49.469Z,34.05
2022-12-05T10:08:25.800Z,31.02
2022-12-05T10:11:02.105Z,27.45
2022-12-05T10:13:54.308Z,27.60
2022-12-05T10:16:49.457Z,28.67
2022-12-05T10:19:23.902Z,27.50
2022-12-05T10:21:58.874Z,28.88
2022-12-05T10:24:38.760Z,28.52
2022-12-05T10:27:14.530Z,28.52
2022-12-05T10:30:07.921Z,28.75
2022-12-05T10:33:07.956Z,29.10
2022-12-05T10:35:38.742Z,27.25
2022-12-05T10:38:05.577Z,26.90
2022-12-05T10:40:41.854Z,28.35
2022-12-05T10:43:13.274Z,27.27
2022-12-05T10:45:43.911Z,27.92
2022-12-05T10:52:17.777Z,25.90
2022-12-05T10:55:00.871Z,26.83
2022-12-05T10:57:32.793Z,28.58
2022-12-05T11:02:38.178Z,26.10
2022-12-05T11:05:05.703Z,28.67
2022-12-05T11:07:36.317Z,26.70
2022-12-05T11:13:56.426Z,24.83
2022-12-05T11:16:35.072Z,25.35
2022-12-05T11:19:57.997Z,22.80
2022-12-05T11:22:32.949Z,23.52
2022-12-05T11:24:59.959Z,25.23
2022-12-05T11:27:32.581Z,24.92
2022-12-05T11:30:28.135Z,24.23
2022-12-05T11:33:19.134Z,22.65
2022-12-05T11:43:38.970Z,21.00
2022-12-05T11:46:29.987Z,22.08
2022-12-05T11:49:28.214Z,20.50
2022-12-05T11:52:25.207Z,21.85
2022-12-05T11:55:15.165Z,21.88
2022-12-05T12:32:26.026Z,20.67
2022-12-05T12:41:43.377Z,21.83
2022-12-05T12:44:21.799Z,23.75
2022-12-05T12:46:57.565Z,22.20
2022-12-05T12:50:01.303Z,22.42
2022-12-05T12:52:41.124Z,21.35
2022-12-05T12:55:27.628Z,22.88
2022-12-05T12:57:54.347Z,21.80
2022-12-05T13:00:33.050Z,22.50
2022-12-05T13:03:20.341Z,22.13
2022-12-05T13:05:51.808Z,22.63
2022-12-05T13:08:34.051Z,22.80
2022-12-05T13:11:02.684Z,22.42
2022-12-05T13:13:36.755Z,22.42
2022-12-05T13:16:07.889Z,21.77
2022-12-05T13:18:35.628Z,23.75
2022-12-05T13:21:07.309Z,22.63
2022-12-05T13:23:54.274Z,22.45
2022-12-05T13:26:21.756Z,22.25
2022-12-05T13:28:53.934Z,22.33
2022-12-05T13:31:35.527Z,20.95
2022-12-05T13:34:02.450Z,21.27
2022-12-05T13:36:56.766Z,22.63
2022-12-05T13:39:42.607Z,21.60
2022-12-05T13:42:29.207Z,23.17
2022-12-05T13:45:04.914Z,23.42
2022-12-05T13:47:37.111Z,21.17
2022-12-05T13:50:07.295Z,22.25
2022-12-05T13:52:45.385Z,25.65
2022-12-05T13:55:36.538Z,22.95
2022-12-05T13:58:22.254Z,23.23
2022-12-05T14:00:52.687Z,24.08
2022-12-05T14:03:34.532Z,24.25
2022-12-05T14:06:01.695Z,24.08
2022-12-05T14:08:35.799Z,23.80
2022-12-05T14:11:05.819Z,24.05
2022-12-05T14:13:33.705Z,25.58
2022-12-05T14:16:25.521Z,24.55
2022-12-05T14:19:21.401Z,24.08
2022-12-05T14:22:18.758Z,25.75
2022-12-05T14:25:27.179Z,24.00
2022-12-05T14:28:18.308Z,23.58
2022-12-05T14:31:09.551Z,25.87
2022-12-05T14:33:36.495Z,25.57
2022-12-05T14:36:08.967Z,25.65
2022-12-05T14:38:37.982Z,25.92
2022-12-05T14:41:28.699Z,25.75
2022-12-05T14:43:56.938Z,27.67
2022-12-05T14:46:29.834Z,27.27
2022-12-05T14:48:56.991Z,26.92
2022-12-05T14:51:32.852Z,27.77
2022-12-05T14:54:32.243Z,27.10
2022-12-05T14:57:13.313Z,26.13
2022-12-05T15:00:06.573Z,25.13
2022-12-05T15:02:42.458Z,25.73
2022-12-05T15:05:26.450Z,28.05
2022-12-05T15:07:55.001Z,25.80
2022-12-05T15:10:39.370Z,25.17
2022-12-05T15:13:28.476Z,24.75
2022-12-05T15:43:47.659Z,23.73
2022-12-05T15:50:36.318Z,23.70
2022-12-05T15:57:00.071Z,23.85
2022-12-05T15:59:36.020Z,25.00
2022-12-05T16:02:29.031Z,25.13
2022-12-05T16:05:00.011Z,24.85
2022-12-05T16:07:30.498Z,28.98
2022-12-05T16:10:00.527Z,52.15
2022-12-05T16:12:32.771Z,25.35
2022-12-05T16:15:04.854Z,29.27
2022-12-05T16:17:52.227Z,25.45
2022-12-05T16:20:19.048Z,25.73
2022-12-05T16:22:49.147Z,30.55
2022-12-05T16:25:37.420Z,23.60
2022-12-05T16:28:11.244Z,23.63
2022-12-05T16:30:38.610Z,22.88
2022-12-05T16:33:16.164Z,28.50
2022-12-05T16:35:48.938Z,45.90
2022-12-05T16:38:26.051Z,29.38
2022-12-05T16:40:56.995Z,26.35
2022-12-05T16:43:33.078Z,25.17
2022-12-05T16:46:13.005Z,27.58
2022-12-05T16:48:44.738Z,27.30
2022-12-05T16:51:11.700Z,26.13
2022-12-05T16:53:39.777Z,23.52
2022-12-05T16:56:11.079Z,26.10
2022-12-05T16:58:37.814Z,33.13
2022-12-05T17:01:07.041Z,27.95
2022-12-05T17:03:35.673Z,27.50
2022-12-05T17:06:03.109Z,28.80
2022-12-05T17:08:30.045Z,28.42
2022-12-05T17:10:58.029Z,28.10
2022-12-05T17:13:25.353Z,31.70
2022-12-05T17:15:52.158Z,29.92
2022-12-05T17:18:26.612Z,32.08
2022-12-05T17:20:57.508Z,24.75
2022-12-05T17:23:24.282Z,25.58
2022-12-05T17:25:54.324Z,23.33
2022-12-05T17:28:23.314Z,26.65
2022-12-05T17:30:50.822Z,25.77
2022-12-05T17:33:19.293Z,28.77
2022-12-05T17:35:47.021Z,31.40
2022-12-05T17:38:14.420Z,31.92
2022-12-05T17:40:41.566Z,27.30
2022-12-05T17:43:12.799Z,36.58
2022-12-05T17:45:39.650Z,25.85
2022-12-05T17:48:06.589Z,28.13
2022-12-05T17:50:33.579Z,32.72
2022-12-05T17:53:05.776Z,27.70
2022-12-05T17:55:34.047Z,32.97
2022-12-05T17:58:00.821Z,24.92
2022-12-05T18:00:27.575Z,27.75
2022-12-05T18:02:54.392Z,28.73
2022-12-05T18:05:21.717Z,27.92
2022-12-05T18:07:48.713Z,28.17
2022-12-05T18:10:22.091Z,25.95
2022-12-05T18:12:50.053Z,25.45
2022-12-05T18:15:17.733Z,26.80
2022-12-05T18:17:44.881Z,25.13
2022-12-05T18:20:16.310Z,25.50
2022-12-05T18:22:43.304Z,25.45
2022-12-05T18:25:18.364Z,23.00
2022-12-05T18:27:45.665Z,24.95
2022-12-05T18:30:12.791Z,28.05
2022-12-05T18:32:39.626Z,83.95
2022-12-05T18:35:12.697Z,31.10
2022-12-05T18:37:40.214Z,26.67
2022-12-05T18:40:08.905Z,23.25
2022-12-05T18:42:36.221Z,24.85
2022-12-05T18:45:03.908Z,25.73
2022-12-05T18:47:31.431Z,24.05
2022-12-05T18:49:58.934Z,24.17
2022-12-05T18:52:25.745Z,26.13
2022-12-05T18:55:09.176Z,25.10
2022-12-05T18:57:39.365Z,26.00
2022-12-05T19:00:06.878Z,26.70
2022-12-05T19:02:33.657Z,28.40
2022-12-05T19:05:00.728Z,27.48
2022-12-05T19:07:27.794Z,32.53
2022-12-05T19:09:54.566Z,19.98
2022-12-05T19:12:21.738Z,24.38
2022-12-05T19:14:48.554Z,24.15
2022-12-05T19:17:15.287Z,22.95
2022-12-05T19:19:42.033Z,23.77
2022-12-05T19:22:08.795Z,30.17
2022-12-05T19:24:36.957Z,24.05
2022-12-05T19:27:04.007Z,22.77
2022-12-05T19:29:30.751Z,24.98
2022-12-05T19:31:57.598Z,24.50
2022-12-05T19:34:24.521Z,27.02
2022-12-05T19:36:51.343Z,27.02
2022-12-05T19:39:21.115Z,28.00
2022-12-05T19:41:49.355Z,23.88
2022-12-05T19:44:16.176Z,25.52
2022-12-05T19:46:43.395Z,25.20
2022-12-05T19:49:12.248Z,26.23
2022-12-05T19:51:39.100Z,24.00
2022-12-05T19:54:07.497Z,24.08
2022-12-05T19:56:36.058Z,23.60
2022-12-05T19:59:03.319Z,25.02
2022-12-05T20:01:31.116Z,23.38
2022-12-05T20:04:00.775Z,21.90
2022-12-05T20:06:32.340Z,22.13
2022-12-05T20:08:59.937Z,21.58
2022-12-05T20:11:28.990Z,21.02
2022-12-05T20:13:58.270Z,19.48
2022-12-05T20:16:28.941Z,20.23
2022-12-05T20:18:59.044Z,19.23
2022-12-05T20:21:28.065Z,19.00
2022-12-05T20:23:55.306Z,18.73
2022-12-05T20:26:32.837Z,19.60
2022-12-05T20:29:00.741Z,20.60
2022-12-05T20:31:37.195Z,19.70
2022-12-05T20:34:05.750Z,18.02
2022-12-05T20:36:34.617Z,17.75
2022-12-05T20:39:07.684Z,17.55
2022-12-05T20:41:35.231Z,19.85
2022-12-05T20:44:05.458Z,18.55
2022-12-05T20:46:32.846Z,18.10
2022-12-05T20:49:00.048Z,19.52
2022-12-05T20:51:32.138Z,15.40
2022-12-05T20:54:00.882Z,17.58
2022-12-05T20:56:29.890Z,19.13
2022-12-05T20:59:00.247Z,17.15
2022-12-05T21:01:28.928Z,17.38
2022-12-05T21:03:56.596Z,16.42
2022-12-05T21:06:35.636Z,17.17
2022-12-05T21:09:04.095Z,18.13
2022-12-05T21:11:31.086Z,18.25
2022-12-05T21:14:05.098Z,17.88
2022-12-05T21:16:32.387Z,18.65
2022-12-05T21:18:59.917Z,17.55
2022-12-05T21:21:28.384Z,18.60
2022-12-05T21:23:57.717Z,16.35
2022-12-05T21:26:26.359Z,17.23
2022-12-05T21:28:53.835Z,16.20
2022-12-05T21:31:23.760Z,15.13
2022-12-05T21:33:53.252Z,14.85
2022-12-05T21:36:20.608Z,16.88
2022-12-05T21:38:52.378Z,15.88
2022-12-05T21:41:22.658Z,17.52
2022-12-05T21:43:54.060Z,15.35
2022-12-05T21:46:21.723Z,16.92
2022-12-05T21:48:48.598Z,15.25
2022-12-05T21:51:15.509Z,14.25
2022-12-05T21:53:42.427Z,14.63
2022-12-05T21:56:12.165Z,13.25
2022-12-05T21:58:42.263Z,13.77
2022-12-05T22:01:17.605Z,12.45
2022-12-05T22:03:44.752Z,18.05
2022-12-05T22:06:14.711Z,13.00
2022-12-05T22:08:42.438Z,8.57
2022-12-05T22:11:12.145Z,8.40
2022-12-05T22:13:39.447Z,9.13
2022-12-05T22:16:07.060Z,8.52
2022-12-05T22:18:34.424Z,9.20
2022-12-05T22:21:04.509Z,7.30
2022-12-05T22:23:33.269Z,8.80
2022-12-05T22:26:02.142Z,8.45
2022-12-05T22:28:30.257Z,8.77
2022-12-05T22:30:59.555Z,7.95
2022-12-05T22:33:27.704Z,8.95
2022-12-05T22:35:57.168Z,8.57
2022-12-05T22:38:25.414Z,8.55
2022-12-05T22:41:00.926Z,8.15
2022-12-05T22:43:29.509Z,7.82
2022-12-05T22:45:56.571Z,6.95
2022-12-05T22:48:24.045Z,6.72
2022-12-05T22:50:54.327Z,6.53
2022-12-05T22:53:23.546Z,6.20
2022-12-05T22:55:51.175Z,6.57
2022-12-05T22:58:18.044Z,6.80
2022-12-05T23:00:46.363Z,6.68
2022-12-05T23:03:13.242Z,7.32
2022-12-05T23:05:43.806Z,6.60
2022-12-05T23:08:11.516Z,7.07
2022-12-05T23:10:39.490Z,6.85
2022-12-05T23:13:09.582Z,7.10
2022-12-05T23:15:39.191Z,6.95
2022-12-05T23:18:06.182Z,6.45
2022-12-05T23:20:33.131Z,6.93
2022-12-05T23:22:59.865Z,6.80
2022-12-05T23:25:26.839Z,6.53
2022-12-05T23:27:53.691Z,7.03
2022-12-05T23:30:20.579Z,7.13
2022-12-05T23:32:47.474Z,6.18
2022-12-05T23:35:14.369Z,6.97
2022-12-05T23:37:41.149Z,7.03
2022-12-05T23:40:08.588Z,6.88
2022-12-05T23:42:35.360Z,7.13
2022-12-05T23:45:02.200Z,6.50
2022-12-05T23:47:29.142Z,6.07
2022-12-05T23:49:56.007Z,5.50
2022-12-05T23:52:22.883Z,5.70
2022-12-05T23:54:49.654Z,5.63
2022-12-05T23:57:17.918Z,6.05
2022-12-05T23:59:45.813Z,6.10
